sensor_id;sensor_type;location;lat;lon;timestamp;P1;durP1;ratioP1;P2;durP2;ratioP2
28459;SDS011;32528;45.712;9.192;2023-02-18T00:00:31;25.42;;;13.85;;
28459;SDS011;32528;45.712;9.192;2023-02-18T00:02:32;22.10;;;12.38;;
28459;SDS011;32528;45.712;9.192;2023-02-18T00:04:33;53.80;;;24.23;;
28459;SDS011;32528;45.712;9.192;2023-02-18T00:06:34;40.65;;;17.67;;
28459;SDS011;32528;45.712;9.192;2023-02-18T00:08:35;29.30;;;16.67;;
28459;SDS011;32528;45.712;9.192;2023-02-18T00:10:39;26.02;;;14.75;;
28459;SDS011;32528;45.712;9.192;2023-02-18T00:12:41;53.03;;;21.65;;
28459;SDS011;32528;45.712;9.192;2023-02-18T00:14:42;45.22;;;23.35;;
28459;SDS011;32528;45.712;9.192;2023-02-18T00:16:43;43.03;;;19.77;;
28459;SDS011;32528;45.712;9.192;2023-02-18T00:18:45;24.13;;;13.20;;
28459;SDS011;32528;45.712;9.192;2023-02-18T00:20:45;24.60;;;13.10;;
28459;SDS011;32528;45.712;9.192;2023-02-18T00:22:46;24.75;;;12.50;;
28459;SDS011;32528;45.712;9.192;2023-02-18T00:24:47;19.38;;;10.95;;
28459;SDS011;32528;45.712;9.192;2023-02-18T00:26:51;16.85;;;10.27;;
28459;SDS011;32528;45.712;9.192;2023-02-18T00:28:52;19.27;;;10.63;;
28459;SDS011;32528;45.712;9.192;2023-02-18T00:30:53;21.52;;;11.25;;
28459;SDS011;32528;45.712;9.192;2023-02-18T00:32:57;19.75;;;9.07;;
28459;SDS011;32528;45.712;9.192;2023-02-18T00:34:57;25.20;;;11.65;;
28459;SDS011;32528;45.712;9.192;2023-02-18T00:36:58;21.80;;;12.45;;
28459;SDS011;32528;45.712;9.192;2023-02-18T00:39:00;25.40;;;13.30;;
28459;SDS011;32528;45.712;9.192;2023-02-18T00:41:04;22.73;;;12.85;;
28459;SDS011;32528;45.712;9.192;2023-02-18T00:43:05;25.90;;;13.85;;
28459;SDS011;32528;45.712;9.192;2023-02-18T00:45:06;20.50;;;12.13;;
28459;SDS011;32528;45.712;9.192;2023-02-18T00:47:07;27.70;;;14.23;;
28459;SDS011;32528;45.712;9.192;2023-02-18T00:49:08;33.28;;;16.63;;
28459;SDS011;32528;45.712;9.192;2023-02-18T00:51:09;35.92;;;16.27;;
28459;SDS011;32528;45.712;9.192;2023-02-18T00:53:12;22.85;;;11.30;;
28459;SDS011;32528;45.712;9.192;2023-02-18T00:55:13;21.50;;;11.68;;
28459;SDS011;32528;45.712;9.192;2023-02-18T00:57:14;17.20;;;10.50;;
28459;SDS011;32528;45.712;9.192;2023-02-18T00:59:14;23.85;;;10.35;;
28459;SDS011;32528;45.712;9.192;2023-02-18T01:01:16;28.60;;;11.63;;
28459;SDS011;32528;45.712;9.192;2023-02-18T01:03:18;21.60;;;10.88;;
28459;SDS011;32528;45.712;9.192;2023-02-18T01:05:19;20.05;;;10.68;;
28459;SDS011;32528;45.712;9.192;2023-02-18T01:07:21;26.88;;;9.27;;
28459;SDS011;32528;45.712;9.192;2023-02-18T01:09:22;19.42;;;11.32;;
28459;SDS011;32528;45.712;9.192;2023-02-18T01:11:24;17.77;;;11.05;;
28459;SDS011;32528;45.712;9.192;2023-02-18T01:13:26;17.08;;;9.93;;
28459;SDS011;32528;45.712;9.192;2023-02-18T01:15:27;21.80;;;12.55;;
28459;SDS011;32528;45.712;9.192;2023-02-18T01:17:28;18.38;;;11.60;;
28459;SDS011;32528;45.712;9.192;2023-02-18T01:19:29;22.38;;;11.95;;
28459;SDS011;32528;45.712;9.192;2023-02-18T01:21:30;20.60;;;11.63;;
28459;SDS011;32528;45.712;9.192;2023-02-18T01:23:30;23.88;;;13.10;;
28459;SDS011;32528;45.712;9.192;2023-02-18T01:25:31;23.80;;;13.93;;
28459;SDS011;32528;45.712;9.192;2023-02-18T01:27:34;27.52;;;14.57;;
28459;SDS011;32528;45.712;9.192;2023-02-18T01:29:36;20.80;;;12.07;;
28459;SDS011;32528;45.712;9.192;2023-02-18T01:31:37;22.15;;;13.75;;
28459;SDS011;32528;45.712;9.192;2023-02-18T01:33:37;28.02;;;13.95;;
28459;SDS011;32528;45.712;9.192;2023-02-18T01:35:39;31.58;;;14.75;;
28459;SDS011;32528;45.712;9.192;2023-02-18T01:37:40;26.42;;;14.90;;
28459;SDS011;32528;45.712;9.192;2023-02-18T01:39:41;24.13;;;14.38;;
28459;SDS011;32528;45.712;9.192;2023-02-18T01:41:42;25.98;;;16.23;;
28459;SDS011;32528;45.712;9.192;2023-02-18T01:43:42;28.98;;;15.55;;
28459;SDS011;32528;45.712;9.192;2023-02-18T01:48:03;27.00;;;16.15;;
28459;SDS011;32528;45.712;9.192;2023-02-18T01:50:11;35.50;;;16.00;;
28459;SDS011;32528;45.712;9.192;2023-02-18T01:52:23;29.23;;;16.23;;
28459;SDS011;32528;45.712;9.192;2023-02-18T01:54:26;26.70;;;14.98;;
28459;SDS011;32528;45.712;9.192;2023-02-18T01:56:34;24.73;;;14.18;;
28459;SDS011;32528;45.712;9.192;2023-02-18T01:58:45;27.58;;;14.98;;
28459;SDS011;32528;45.712;9.192;2023-02-18T02:02:49;28.13;;;16.73;;
28459;SDS011;32528;45.712;9.192;2023-02-18T02:04:51;27.50;;;15.10;;
28459;SDS011;32528;45.712;9.192;2023-02-18T02:06:52;26.73;;;16.92;;
28459;SDS011;32528;45.712;9.192;2023-02-18T02:08:57;37.38;;;18.30;;
28459;SDS011;32528;45.712;9.192;2023-02-18T02:13:32;30.92;;;17.77;;
28459;SDS011;32528;45.712;9.192;2023-02-18T02:16:02;32.97;;;18.70;;
28459;SDS011;32528;45.712;9.192;2023-02-18T02:18:30;36.03;;;20.67;;
28459;SDS011;32528;45.712;9.192;2023-02-18T02:20:46;41.15;;;20.13;;
28459;SDS011;32528;45.712;9.192;2023-02-18T02:23:33;35.95;;;17.10;;
28459;SDS011;32528;45.712;9.192;2023-02-18T02:33:47;35.92;;;18.70;;
28459;SDS011;32528;45.712;9.192;2023-02-18T02:38:35;41.58;;;19.23;;
28459;SDS011;32528;45.712;9.192;2023-02-18T02:45:10;33.38;;;19.23;;
28459;SDS011;32528;45.712;9.192;2023-02-18T02:49:51;28.87;;;16.93;;
28459;SDS011;32528;45.712;9.192;2023-02-18T02:54:21;37.17;;;19.42;;
28459;SDS011;32528;45.712;9.192;2023-02-18T02:56:26;32.13;;;17.55;;
28459;SDS011;32528;45.712;9.192;2023-02-18T02:58:28;40.50;;;18.83;;
28459;SDS011;32528;45.712;9.192;2023-02-18T03:14:36;35.42;;;19.25;;
28459;SDS011;32528;45.712;9.192;2023-02-18T03:16:49;37.00;;;20.13;;
28459;SDS011;32528;45.712;9.192;2023-02-18T03:22:00;40.95;;;21.92;;
28459;SDS011;32528;45.712;9.192;2023-02-18T03:24:21;34.95;;;20.20;;
28459;SDS011;32528;45.712;9.192;2023-02-18T03:26:30;31.30;;;19.20;;
28459;SDS011;32528;45.712;9.192;2023-02-18T03:28:32;34.60;;;19.10;;
28459;SDS011;32528;45.712;9.192;2023-02-18T03:30:40;40.55;;;22.15;;
28459;SDS011;32528;45.712;9.192;2023-02-18T03:32:44;44.42;;;21.60;;
28459;SDS011;32528;45.712;9.192;2023-02-18T03:34:48;41.28;;;21.05;;
28459;SDS011;32528;45.712;9.192;2023-02-18T03:36:54;32.92;;;19.33;;
28459;SDS011;32528;45.712;9.192;2023-02-18T03:39:16;36.63;;;22.08;;
28459;SDS011;32528;45.712;9.192;2023-02-18T03:41:18;39.05;;;20.85;;
28459;SDS011;32528;45.712;9.192;2023-02-18T03:43:20;38.15;;;19.50;;
28459;SDS011;32528;45.712;9.192;2023-02-18T03:45:20;36.30;;;21.52;;
28459;SDS011;32528;45.712;9.192;2023-02-18T03:47:22;36.20;;;20.92;;
28459;SDS011;32528;45.712;9.192;2023-02-18T03:49:23;34.70;;;20.38;;
28459;SDS011;32528;45.712;9.192;2023-02-18T03:51:24;38.50;;;20.25;;
28459;SDS011;32528;45.712;9.192;2023-02-18T03:53:25;40.25;;;22.30;;
28459;SDS011;32528;45.712;9.192;2023-02-18T03:55:26;43.00;;;21.42;;
28459;SDS011;32528;45.712;9.192;2023-02-18T03:57:27;33.85;;;20.88;;
28459;SDS011;32528;45.712;9.192;2023-02-18T03:59:27;36.33;;;20.55;;
28459;SDS011;32528;45.712;9.192;2023-02-18T04:01:28;35.67;;;20.65;;
28459;SDS011;32528;45.712;9.192;2023-02-18T04:03:29;44.28;;;26.73;;
28459;SDS011;32528;45.712;9.192;2023-02-18T04:05:30;48.03;;;28.23;;
28459;SDS011;32528;45.712;9.192;2023-02-18T04:07:32;38.20;;;23.08;;
28459;SDS011;32528;45.712;9.192;2023-02-18T04:09:33;37.38;;;20.58;;
28459;SDS011;32528;45.712;9.192;2023-02-18T04:13:38;43.15;;;24.73;;
28459;SDS011;32528;45.712;9.192;2023-02-18T04:15:39;43.65;;;24.73;;
28459;SDS011;32528;45.712;9.192;2023-02-18T04:17:39;50.20;;;26.88;;
28459;SDS011;32528;45.712;9.192;2023-02-18T04:19:40;43.17;;;24.35;;
28459;SDS011;32528;45.712;9.192;2023-02-18T04:21:42;37.53;;;23.60;;
28459;SDS011;32528;45.712;9.192;2023-02-18T04:23:42;46.83;;;24.33;;
28459;SDS011;32528;45.712;9.192;2023-02-18T04:25:43;47.08;;;24.52;;
28459;SDS011;32528;45.712;9.192;2023-02-18T04:27:44;43.95;;;25.08;;
28459;SDS011;32528;45.712;9.192;2023-02-18T04:29:45;49.72;;;26.00;;
28459;SDS011;32528;45.712;9.192;2023-02-18T04:31:45;53.42;;;26.63;;
28459;SDS011;32528;45.712;9.192;2023-02-18T04:33:47;40.95;;;22.38;;
28459;SDS011;32528;45.712;9.192;2023-02-18T04:35:47;44.92;;;24.27;;
28459;SDS011;32528;45.712;9.192;2023-02-18T04:37:48;46.65;;;23.52;;
28459;SDS011;32528;45.712;9.192;2023-02-18T04:39:49;47.17;;;25.67;;
28459;SDS011;32528;45.712;9.192;2023-02-18T04:41:50;49.00;;;25.88;;
28459;SDS011;32528;45.712;9.192;2023-02-18T04:43:51;48.67;;;27.50;;
28459;SDS011;32528;45.712;9.192;2023-02-18T04:45:52;44.40;;;25.77;;
28459;SDS011;32528;45.712;9.192;2023-02-18T04:47:52;54.03;;;28.23;;
28459;SDS011;32528;45.712;9.192;2023-02-18T04:49:53;52.08;;;24.35;;
28459;SDS011;32528;45.712;9.192;2023-02-18T04:51:54;51.15;;;27.35;;
28459;SDS011;32528;45.712;9.192;2023-02-18T04:53:55;45.25;;;24.83;;
28459;SDS011;32528;45.712;9.192;2023-02-18T04:55:55;51.72;;;26.88;;
28459;SDS011;32528;45.712;9.192;2023-02-18T04:57:57;44.45;;;26.08;;
28459;SDS011;32528;45.712;9.192;2023-02-18T04:59:58;49.60;;;26.77;;
28459;SDS011;32528;45.712;9.192;2023-02-18T05:01:59;44.30;;;25.27;;
28459;SDS011;32528;45.712;9.192;2023-02-18T05:03:59;49.72;;;26.88;;
28459;SDS011;32528;45.712;9.192;2023-02-18T05:06:00;48.38;;;26.25;;
28459;SDS011;32528;45.712;9.192;2023-02-18T05:08:03;56.33;;;28.27;;
28459;SDS011;32528;45.712;9.192;2023-02-18T05:10:04;40.42;;;25.80;;
28459;SDS011;32528;45.712;9.192;2023-02-18T05:12:05;44.40;;;26.45;;
28459;SDS011;32528;45.712;9.192;2023-02-18T05:14:06;56.10;;;28.10;;
28459;SDS011;32528;45.712;9.192;2023-02-18T05:16:07;53.97;;;27.02;;
28459;SDS011;32528;45.712;9.192;2023-02-18T05:18:08;47.13;;;26.08;;
28459;SDS011;32528;45.712;9.192;2023-02-18T05:20:09;54.00;;;27.88;;
28459;SDS011;32528;45.712;9.192;2023-02-18T05:22:10;57.65;;;27.55;;
28459;SDS011;32528;45.712;9.192;2023-02-18T05:24:11;58.97;;;29.63;;
28459;SDS011;32528;45.712;9.192;2023-02-18T05:26:12;61.10;;;27.88;;
28459;SDS011;32528;45.712;9.192;2023-02-18T05:28:13;46.13;;;27.30;;
28459;SDS011;32528;45.712;9.192;2023-02-18T05:30:15;47.65;;;26.50;;
28459;SDS011;32528;45.712;9.192;2023-02-18T05:32:17;59.00;;;28.48;;
28459;SDS011;32528;45.712;9.192;2023-02-18T05:34:18;51.83;;;26.75;;
28459;SDS011;32528;45.712;9.192;2023-02-18T05:36:18;51.88;;;28.10;;
28459;SDS011;32528;45.712;9.192;2023-02-18T05:38:19;56.45;;;28.10;;
28459;SDS011;32528;45.712;9.192;2023-02-18T05:40:20;56.13;;;27.33;;
28459;SDS011;32528;45.712;9.192;2023-02-18T05:42:20;45.83;;;26.80;;
28459;SDS011;32528;45.712;9.192;2023-02-18T05:44:22;45.13;;;26.17;;
28459;SDS011;32528;45.712;9.192;2023-02-18T05:46:30;47.70;;;26.33;;
28459;SDS011;32528;45.712;9.192;2023-02-18T05:48:30;47.38;;;28.08;;
28459;SDS011;32528;45.712;9.192;2023-02-18T05:50:31;46.03;;;28.35;;
28459;SDS011;32528;45.712;9.192;2023-02-18T05:52:33;52.67;;;27.77;;
28459;SDS011;32528;45.712;9.192;2023-02-18T05:54:33;53.33;;;31.20;;
28459;SDS011;32528;45.712;9.192;2023-02-18T05:56:35;50.78;;;28.55;;
28459;SDS011;32528;45.712;9.192;2023-02-18T05:58:35;54.42;;;27.52;;
28459;SDS011;32528;45.712;9.192;2023-02-18T06:00:36;54.00;;;28.67;;
28459;SDS011;32528;45.712;9.192;2023-02-18T06:02:37;66.28;;;30.15;;
28459;SDS011;32528;45.712;9.192;2023-02-18T06:04:38;80.00;;;29.80;;
28459;SDS011;32528;45.712;9.192;2023-02-18T06:06:41;48.28;;;26.58;;
28459;SDS011;32528;45.712;9.192;2023-02-18T06:08:42;58.90;;;27.67;;
28459;SDS011;32528;45.712;9.192;2023-02-18T06:10:42;57.22;;;31.73;;
28459;SDS011;32528;45.712;9.192;2023-02-18T06:12:43;53.55;;;27.02;;
28459;SDS011;32528;45.712;9.192;2023-02-18T06:14:44;50.20;;;27.98;;
28459;SDS011;32528;45.712;9.192;2023-02-18T06:16:45;55.47;;;30.05;;
28459;SDS011;32528;45.712;9.192;2023-02-18T06:18:46;56.08;;;27.50;;
28459;SDS011;32528;45.712;9.192;2023-02-18T06:20:48;50.40;;;27.70;;
28459;SDS011;32528;45.712;9.192;2023-02-18T06:22:49;57.08;;;30.70;;
28459;SDS011;32528;45.712;9.192;2023-02-18T06:24:50;45.75;;;27.13;;
28459;SDS011;32528;45.712;9.192;2023-02-18T06:26:51;58.83;;;30.05;;
28459;SDS011;32528;45.712;9.192;2023-02-18T06:28:51;58.95;;;27.20;;
28459;SDS011;32528;45.712;9.192;2023-02-18T06:30:52;55.63;;;31.35;;
28459;SDS011;32528;45.712;9.192;2023-02-18T06:32:53;58.72;;;30.55;;
28459;SDS011;32528;45.712;9.192;2023-02-18T06:34:54;67.43;;;34.20;;
28459;SDS011;32528;45.712;9.192;2023-02-18T06:36:54;59.50;;;32.38;;
28459;SDS011;32528;45.712;9.192;2023-02-18T06:38:55;65.40;;;34.80;;
28459;SDS011;32528;45.712;9.192;2023-02-18T06:40:58;51.47;;;28.08;;
28459;SDS011;32528;45.712;9.192;2023-02-18T06:42:59;61.00;;;31.00;;
28459;SDS011;32528;45.712;9.192;2023-02-18T06:45:00;70.38;;;30.58;;
28459;SDS011;32528;45.712;9.192;2023-02-18T06:47:01;60.35;;;31.05;;
28459;SDS011;32528;45.712;9.192;2023-02-18T06:49:02;60.40;;;30.92;;
28459;SDS011;32528;45.712;9.192;2023-02-18T06:51:04;61.65;;;32.55;;
28459;SDS011;32528;45.712;9.192;2023-02-18T06:53:05;66.95;;;30.85;;
28459;SDS011;32528;45.712;9.192;2023-02-18T06:55:06;58.05;;;32.22;;
28459;SDS011;32528;45.712;9.192;2023-02-18T06:57:08;50.75;;;28.58;;
28459;SDS011;32528;45.712;9.192;2023-02-18T06:59:09;56.00;;;31.27;;
28459;SDS011;32528;45.712;9.192;2023-02-18T07:01:10;48.10;;;27.20;;
28459;SDS011;32528;45.712;9.192;2023-02-18T07:03:11;56.10;;;31.23;;
28459;SDS011;32528;45.712;9.192;2023-02-18T07:05:13;59.40;;;29.73;;
28459;SDS011;32528;45.712;9.192;2023-02-18T07:07:14;48.35;;;27.55;;
28459;SDS011;32528;45.712;9.192;2023-02-18T07:09:15;47.50;;;28.67;;
28459;SDS011;32528;45.712;9.192;2023-02-18T07:11:17;61.05;;;33.25;;
28459;SDS011;32528;45.712;9.192;2023-02-18T07:13:17;53.58;;;29.48;;
28459;SDS011;32528;45.712;9.192;2023-02-18T07:15:20;55.13;;;28.90;;
28459;SDS011;32528;45.712;9.192;2023-02-18T07:17:23;54.03;;;29.73;;
28459;SDS011;32528;45.712;9.192;2023-02-18T07:19:25;52.55;;;29.73;;
28459;SDS011;32528;45.712;9.192;2023-02-18T07:21:25;54.10;;;29.75;;
28459;SDS011;32528;45.712;9.192;2023-02-18T07:23:27;58.75;;;29.75;;
28459;SDS011;32528;45.712;9.192;2023-02-18T07:25:28;66.28;;;32.53;;
28459;SDS011;32528;45.712;9.192;2023-02-18T07:27:28;54.92;;;29.27;;
28459;SDS011;32528;45.712;9.192;2023-02-18T07:29:29;60.25;;;33.22;;
28459;SDS011;32528;45.712;9.192;2023-02-18T07:31:30;58.38;;;29.38;;
28459;SDS011;32528;45.712;9.192;2023-02-18T07:33:31;65.07;;;31.55;;
28459;SDS011;32528;45.712;9.192;2023-02-18T07:35:32;61.28;;;31.35;;
28459;SDS011;32528;45.712;9.192;2023-02-18T07:37:32;64.00;;;31.23;;
28459;SDS011;32528;45.712;9.192;2023-02-18T07:39:42;67.22;;;30.67;;
28459;SDS011;32528;45.712;9.192;2023-02-18T07:41:44;56.20;;;31.27;;
28459;SDS011;32528;45.712;9.192;2023-02-18T07:43:48;54.65;;;29.27;;
28459;SDS011;32528;45.712;9.192;2023-02-18T07:45:49;48.67;;;28.77;;
28459;SDS011;32528;45.712;9.192;2023-02-18T07:47:50;60.83;;;33.30;;
28459;SDS011;32528;45.712;9.192;2023-02-18T07:49:51;56.63;;;32.22;;
28459;SDS011;32528;45.712;9.192;2023-02-18T07:51:51;58.72;;;31.73;;
28459;SDS011;32528;45.712;9.192;2023-02-18T07:53:52;67.32;;;39.83;;
28459;SDS011;32528;45.712;9.192;2023-02-18T08:00:01;63.83;;;32.85;;
28459;SDS011;32528;45.712;9.192;2023-02-18T08:02:17;57.70;;;33.20;;
28459;SDS011;32528;45.712;9.192;2023-02-18T08:08:25;62.80;;;33.85;;
28459;SDS011;32528;45.712;9.192;2023-02-18T08:10:27;67.57;;;42.97;;
28459;SDS011;32528;45.712;9.192;2023-02-18T08:12:28;76.25;;;44.83;;
28459;SDS011;32528;45.712;9.192;2023-02-18T08:14:29;63.92;;;35.90;;
28459;SDS011;32528;45.712;9.192;2023-02-18T08:16:29;63.70;;;35.58;;
28459;SDS011;32528;45.712;9.192;2023-02-18T08:18:31;60.13;;;34.35;;
28459;SDS011;32528;45.712;9.192;2023-02-18T08:20:36;65.57;;;34.45;;
28459;SDS011;32528;45.712;9.192;2023-02-18T08:22:37;63.85;;;34.85;;
28459;SDS011;32528;45.712;9.192;2023-02-18T08:24:38;71.78;;;42.67;;
28459;SDS011;32528;45.712;9.192;2023-02-18T08:26:40;74.25;;;40.80;;
28459;SDS011;32528;45.712;9.192;2023-02-18T08:28:41;65.53;;;37.75;;
28459;SDS011;32528;45.712;9.192;2023-02-18T08:30:46;71.25;;;34.92;;
28459;SDS011;32528;45.712;9.192;2023-02-18T08:32:48;77.38;;;37.00;;
28459;SDS011;32528;45.712;9.192;2023-02-18T08:34:49;77.82;;;37.45;;
28459;SDS011;32528;45.712;9.192;2023-02-18T08:36:50;64.43;;;36.20;;
28459;SDS011;32528;45.712;9.192;2023-02-18T08:38:52;68.72;;;38.70;;
28459;SDS011;32528;45.712;9.192;2023-02-18T08:41:00;74.43;;;41.70;;
28459;SDS011;32528;45.712;9.192;2023-02-18T08:43:02;72.78;;;40.85;;
28459;SDS011;32528;45.712;9.192;2023-02-18T08:45:03;83.57;;;43.35;;
28459;SDS011;32528;45.712;9.192;2023-02-18T08:47:04;72.88;;;40.22;;
28459;SDS011;32528;45.712;9.192;2023-02-18T08:49:05;77.53;;;44.72;;
28459;SDS011;32528;45.712;9.192;2023-02-18T08:51:16;80.63;;;41.22;;
28459;SDS011;32528;45.712;9.192;2023-02-18T08:53:19;75.28;;;41.55;;
28459;SDS011;32528;45.712;9.192;2023-02-18T08:55:20;71.95;;;41.92;;
28459;SDS011;32528;45.712;9.192;2023-02-18T08:57:21;83.35;;;42.15;;
28459;SDS011;32528;45.712;9.192;2023-02-18T08:59:23;81.53;;;41.17;;
28459;SDS011;32528;45.712;9.192;2023-02-18T09:01:24;84.13;;;43.75;;
28459;SDS011;32528;45.712;9.192;2023-02-18T09:03:26;73.25;;;40.03;;
28459;SDS011;32528;45.712;9.192;2023-02-18T09:05:27;67.78;;;39.05;;
28459;SDS011;32528;45.712;9.192;2023-02-18T09:07:27;79.70;;;40.75;;
28459;SDS011;32528;45.712;9.192;2023-02-18T09:09:28;71.38;;;37.67;;
28459;SDS011;32528;45.712;9.192;2023-02-18T09:11:29;65.93;;;34.90;;
28459;SDS011;32528;45.712;9.192;2023-02-18T09:13:31;75.43;;;40.75;;
28459;SDS011;32528;45.712;9.192;2023-02-18T09:15:32;71.78;;;37.95;;
28459;SDS011;32528;45.712;9.192;2023-02-18T09:17:32;72.60;;;36.92;;
28459;SDS011;32528;45.712;9.192;2023-02-18T09:19:33;61.42;;;33.65;;
28459;SDS011;32528;45.712;9.192;2023-02-18T09:21:34;67.85;;;34.25;;
28459;SDS011;32528;45.712;9.192;2023-02-18T09:23:35;53.47;;;32.03;;
28459;SDS011;32528;45.712;9.192;2023-02-18T09:25:38;60.88;;;33.28;;
28459;SDS011;32528;45.712;9.192;2023-02-18T09:27:39;57.15;;;33.13;;
28459;SDS011;32528;45.712;9.192;2023-02-18T09:29:40;53.55;;;33.42;;
28459;SDS011;32528;45.712;9.192;2023-02-18T09:31:41;62.45;;;33.30;;
28459;SDS011;32528;45.712;9.192;2023-02-18T09:33:43;51.60;;;31.95;;
28459;SDS011;32528;45.712;9.192;2023-02-18T09:35:45;60.22;;;32.53;;
28459;SDS011;32528;45.712;9.192;2023-02-18T09:37:46;54.80;;;30.73;;
28459;SDS011;32528;45.712;9.192;2023-02-18T09:39:47;46.95;;;29.35;;
28459;SDS011;32528;45.712;9.192;2023-02-18T09:41:58;48.38;;;29.38;;
28459;SDS011;32528;45.712;9.192;2023-02-18T09:44:03;55.03;;;31.25;;
28459;SDS011;32528;45.712;9.192;2023-02-18T09:46:21;45.05;;;25.95;;
28459;SDS011;32528;45.712;9.192;2023-02-18T09:48:34;43.85;;;25.40;;
28459;SDS011;32528;45.712;9.192;2023-02-18T09:50:36;41.60;;;23.17;;
28459;SDS011;32528;45.712;9.192;2023-02-18T09:52:37;39.30;;;25.67;;
28459;SDS011;32528;45.712;9.192;2023-02-18T09:56:40;49.63;;;24.80;;
28459;SDS011;32528;45.712;9.192;2023-02-18T09:58:43;44.38;;;27.23;;
28459;SDS011;32528;45.712;9.192;2023-02-18T10:03:14;47.95;;;28.70;;
28459;SDS011;32528;45.712;9.192;2023-02-18T10:05:20;48.55;;;28.42;;
28459;SDS011;32528;45.712;9.192;2023-02-18T10:07:26;51.35;;;27.92;;
28459;SDS011;32528;45.712;9.192;2023-02-18T10:09:36;68.75;;;31.60;;
28459;SDS011;32528;45.712;9.192;2023-02-18T10:11:39;52.28;;;27.48;;
28459;SDS011;32528;45.712;9.192;2023-02-18T10:13:43;48.70;;;27.15;;
28459;SDS011;32528;45.712;9.192;2023-02-18T10:15:44;46.65;;;28.42;;
28459;SDS011;32528;45.712;9.192;2023-02-18T10:17:46;44.72;;;26.40;;
28459;SDS011;32528;45.712;9.192;2023-02-18T10:19:48;54.75;;;29.90;;
28459;SDS011;32528;45.712;9.192;2023-02-18T10:21:51;51.03;;;30.25;;
28459;SDS011;32528;45.712;9.192;2023-02-18T10:26:28;50.67;;;27.80;;
28459;SDS011;32528;45.712;9.192;2023-02-18T10:28:32;48.70;;;28.10;;
28459;SDS011;32528;45.712;9.192;2023-02-18T10:30:36;58.90;;;27.10;;
28459;SDS011;32528;45.712;9.192;2023-02-18T10:32:42;41.05;;;23.88;;
28459;SDS011;32528;45.712;9.192;2023-02-18T10:34:48;42.05;;;21.48;;
28459;SDS011;32528;45.712;9.192;2023-02-18T10:36:54;39.88;;;21.52;;
28459;SDS011;32528;45.712;9.192;2023-02-18T10:42:07;27.13;;;16.25;;
28459;SDS011;32528;45.712;9.192;2023-02-18T10:49:31;30.35;;;16.95;;
28459;SDS011;32528;45.712;9.192;2023-02-18T10:51:45;44.63;;;18.95;;
28459;SDS011;32528;45.712;9.192;2023-02-18T10:53:50;30.35;;;17.83;;
28459;SDS011;32528;45.712;9.192;2023-02-18T10:55:52;28.73;;;16.27;;
28459;SDS011;32528;45.712;9.192;2023-02-18T10:57:55;30.73;;;17.63;;
28459;SDS011;32528;45.712;9.192;2023-02-18T10:59:59;27.80;;;18.73;;
28459;SDS011;32528;45.712;9.192;2023-02-18T11:02:13;37.20;;;19.13;;
28459;SDS011;32528;45.712;9.192;2023-02-18T11:04:25;31.13;;;19.23;;
28459;SDS011;32528;45.712;9.192;2023-02-18T11:06:41;31.13;;;17.33;;
28459;SDS011;32528;45.712;9.192;2023-02-18T11:08:45;28.90;;;15.43;;
28459;SDS011;32528;45.712;9.192;2023-02-18T11:10:47;33.35;;;18.33;;
28459;SDS011;32528;45.712;9.192;2023-02-18T11:12:49;25.20;;;15.93;;
28459;SDS011;32528;45.712;9.192;2023-02-18T11:17:20;30.40;;;17.08;;
28459;SDS011;32528;45.712;9.192;2023-02-18T11:21:36;24.60;;;14.50;;
28459;SDS011;32528;45.712;9.192;2023-02-18T11:23:50;27.60;;;16.02;;
28459;SDS011;32528;45.712;9.192;2023-02-18T11:28:05;27.25;;;14.07;;
28459;SDS011;32528;45.712;9.192;2023-02-18T11:32:27;22.27;;;13.13;;
28459;SDS011;32528;45.712;9.192;2023-02-18T11:34:30;22.55;;;14.55;;
28459;SDS011;32528;45.712;9.192;2023-02-18T11:36:34;25.17;;;14.13;;
28459;SDS011;32528;45.712;9.192;2023-02-18T11:41:02;27.83;;;14.18;;
28459;SDS011;32528;45.712;9.192;2023-02-18T11:43:14;26.08;;;13.80;;
28459;SDS011;32528;45.712;9.192;2023-02-18T11:45:26;22.75;;;13.52;;
28459;SDS011;32528;45.712;9.192;2023-02-18T11:47:33;25.63;;;12.18;;
28459;SDS011;32528;45.712;9.192;2023-02-18T11:49:35;18.17;;;12.18;;
28459;SDS011;32528;45.712;9.192;2023-02-18T11:51:36;19.73;;;13.25;;
28459;SDS011;32528;45.712;9.192;2023-02-18T11:53:49;19.30;;;12.23;;
28459;SDS011;32528;45.712;9.192;2023-02-18T11:56:05;17.63;;;11.95;;
28459;SDS011;32528;45.712;9.192;2023-02-18T11:58:15;21.92;;;13.13;;
28459;SDS011;32528;45.712;9.192;2023-02-18T12:04:32;26.00;;;14.93;;
28459;SDS011;32528;45.712;9.192;2023-02-18T12:11:32;28.98;;;15.07;;
28459;SDS011;32528;45.712;9.192;2023-02-18T12:13:41;22.13;;;12.77;;
28459;SDS011;32528;45.712;9.192;2023-02-18T12:15:53;23.98;;;14.68;;
28459;SDS011;32528;45.712;9.192;2023-02-18T12:28:00;23.20;;;13.23;;
28459;SDS011;32528;45.712;9.192;2023-02-18T12:34:38;21.73;;;12.25;;
28459;SDS011;32528;45.712;9.192;2023-02-18T12:43:46;26.95;;;13.65;;
28459;SDS011;32528;45.712;9.192;2023-02-18T12:46:19;22.55;;;13.45;;
28459;SDS011;32528;45.712;9.192;2023-02-18T12:48:41;28.45;;;14.27;;
28459;SDS011;32528;45.712;9.192;2023-02-18T12:55:35;25.42;;;11.48;;
28459;SDS011;32528;45.712;9.192;2023-02-18T13:05:23;17.92;;;9.48;;
28459;SDS011;32528;45.712;9.192;2023-02-18T13:14:30;17.52;;;9.75;;
28459;SDS011;32528;45.712;9.192;2023-02-18T13:16:35;18.90;;;11.32;;
28459;SDS011;32528;45.712;9.192;2023-02-18T13:18:40;18.35;;;11.10;;
28459;SDS011;32528;45.712;9.192;2023-02-18T13:20:45;20.45;;;10.98;;
28459;SDS011;32528;45.712;9.192;2023-02-18T13:22:53;17.85;;;10.52;;
28459;SDS011;32528;45.712;9.192;2023-02-18T13:24:55;17.58;;;10.38;;
28459;SDS011;32528;45.712;9.192;2023-02-18T13:38:39;19.05;;;8.68;;
28459;SDS011;32528;45.712;9.192;2023-02-18T13:40:51;17.83;;;9.82;;
28459;SDS011;32528;45.712;9.192;2023-02-18T13:42:52;16.23;;;9.70;;
28459;SDS011;32528;45.712;9.192;2023-02-18T13:46:55;16.10;;;9.13;;
28459;SDS011;32528;45.712;9.192;2023-02-18T13:51:06;15.35;;;8.88;;
28459;SDS011;32528;45.712;9.192;2023-02-18T13:55:15;18.52;;;9.82;;
28459;SDS011;32528;45.712;9.192;2023-02-18T13:57:24;17.20;;;9.32;;
28459;SDS011;32528;45.712;9.192;2023-02-18T13:59:37;14.82;;;9.02;;
28459;SDS011;32528;45.712;9.192;2023-02-18T14:01:48;15.30;;;9.70;;
28459;SDS011;32528;45.712;9.192;2023-02-18T14:03:52;16.45;;;9.77;;
28459;SDS011;32528;45.712;9.192;2023-02-18T14:05:55;17.55;;;9.52;;
28459;SDS011;32528;45.712;9.192;2023-02-18T14:08:13;15.45;;;8.65;;
28459;SDS011;32528;45.712;9.192;2023-02-18T14:10:32;19.92;;;9.50;;
28459;SDS011;32528;45.712;9.192;2023-02-18T14:12:39;23.95;;;11.13;;
28459;SDS011;32528;45.712;9.192;2023-02-18T14:14:41;17.20;;;8.75;;
28459;SDS011;32528;45.712;9.192;2023-02-18T14:19:27;15.38;;;9.63;;
28459;SDS011;32528;45.712;9.192;2023-02-18T14:21:39;16.63;;;9.68;;
28459;SDS011;32528;45.712;9.192;2023-02-18T14:25:51;25.48;;;9.93;;
28459;SDS011;32528;45.712;9.192;2023-02-18T14:30:39;17.25;;;10.02;;
28459;SDS011;32528;45.712;9.192;2023-02-18T14:32:41;18.48;;;8.68;;
28459;SDS011;32528;45.712;9.192;2023-02-18T14:35:45;16.88;;;9.40;;
28459;SDS011;32528;45.712;9.192;2023-02-18T14:37:27;22.20;;;10.07;;
28459;SDS011;32528;45.712;9.192;2023-02-18T14:44:32;18.40;;;10.50;;
28459;SDS011;32528;45.712;9.192;2023-02-18T14:47:01;15.63;;;9.65;;